createdAt,value
2017-10-24T00:00:14.546Z,0
2017-10-24T00:00:55.083Z,0
2017-10-24T00:01:35.632Z,0
2017-10-24T00:02:16.157Z,0
2017-10-24T00:02:56.687Z,0
2017-10-24T00:03:37.220Z,0
2017-10-24T00:04:17.761Z,0
2017-10-24T00:04:58.298Z,0
2017-10-24T00:05:38.831Z,0
2017-10-24T00:06:19.363Z,0
2017-10-24T00:06:59.902Z,0
2017-10-24T00:07:40.438Z,0
2017-10-24T00:08:20.975Z,0
2017-10-24T00:09:01.509Z,0
2017-10-24T00:09:42.053Z,0
2017-10-24T00:10:22.587Z,0
2017-10-24T00:11:03.111Z,0
2017-10-24T00:11:43.649Z,0
2017-10-24T00:12:24.191Z,0
2017-10-24T00:13:04.725Z,0
2017-10-24T00:13:45.258Z,0
2017-10-24T00:14:25.791Z,0
2017-10-24T00:15:06.404Z,0
2017-10-24T00:15:46.950Z,0
2017-10-24T00:16:27.487Z,0
2017-10-24T00:17:08.025Z,0
2017-10-24T00:17:48.564Z,0
2017-10-24T00:18:29.100Z,0
2017-10-24T00:19:09.629Z,0
2017-10-24T00:19:50.152Z,0
2017-10-24T00:20:30.701Z,0
2017-10-24T00:21:11.238Z,0
2017-10-24T00:21:51.777Z,0
2017-10-24T00:22:32.308Z,0
2017-10-24T00:23:12.845Z,0
2017-10-24T00:23:53.374Z,0
2017-10-24T00:24:33.915Z,0
2017-10-24T00:25:14.454Z,0
2017-10-24T00:25:54.992Z,0
2017-10-24T00:26:35.562Z,0
2017-10-24T00:27:16.188Z,0
2017-10-24T00:27:56.725Z,0
2017-10-24T00:28:37.256Z,0
2017-10-24T00:29:17.802Z,0
2017-10-24T00:29:58.332Z,0
2017-10-24T00:30:38.867Z,0
2017-10-24T00:31:19.412Z,0
2017-10-24T00:31:59.950Z,0
2017-10-24T00:32:40.489Z,0
2017-10-24T00:33:21.029Z,0
2017-10-24T00:34:01.553Z,0
2017-10-24T00:34:42.091Z,0
2017-10-24T00:35:22.625Z,0
2017-10-24T00:36:03.166Z,0
2017-10-24T00:36:43.707Z,0
2017-10-24T00:37:24.245Z,0
2017-10-24T00:38:04.784Z,0
2017-10-24T00:38:45.313Z,0
2017-10-24T00:39:25.847Z,0
2017-10-24T00:40:06.378Z,0
2017-10-24T00:40:46.921Z,0
2017-10-24T00:41:27.458Z,0
2017-10-24T00:42:08.001Z,0
2017-10-24T00:42:48.541Z,0
2017-10-24T00:43:29.071Z,0
2017-10-24T00:44:09.610Z,0
2017-10-24T00:44:50.137Z,0
2017-10-24T00:45:30.684Z,0
2017-10-24T00:46:11.210Z,0
2017-10-24T00:46:51.747Z,0
2017-10-24T00:47:32.280Z,0
2017-10-24T00:48:12.812Z,0
2017-10-24T00:48:53.349Z,0
2017-10-24T00:49:33.888Z,0
2017-10-24T00:50:14.433Z,0
2017-10-24T00:50:54.981Z,0
2017-10-24T00:51:35.596Z,0
2017-10-24T00:52:16.130Z,0
2017-10-24T00:52:56.662Z,0
2017-10-24T00:53:37.205Z,0
2017-10-24T00:54:17.743Z,0
2017-10-24T00:54:58.284Z,0
2017-10-24T00:55:38.818Z,0
2017-10-24T00:56:19.347Z,0
2017-10-24T00:56:59.881Z,0
2017-10-24T00:57:40.416Z,0
2017-10-24T00:58:20.948Z,0
2017-10-24T00:59:01.490Z,0
2017-10-24T00:59:42.028Z,0
2017-10-24T01:00:22.581Z,0
2017-10-24T01:01:03.119Z,0
2017-10-24T01:01:43.654Z,0
2017-10-24T01:02:24.183Z,0
2017-10-24T01:03:04.719Z,0
2017-10-24T01:03:45.255Z,0
2017-10-24T01:04:25.792Z,0
2017-10-24T01:05:06.328Z,0
2017-10-24T01:05:46.858Z,0
2017-10-24T01:06:30.060Z,0
2017-10-24T01:07:10.601Z,0
2017-10-24T01:07:51.135Z,0
2017-10-24T01:08:31.704Z,0
2017-10-24T01:09:12.237Z,0
2017-10-24T01:09:52.766Z,0
2017-10-24T01:10:33.302Z,0
2017-10-24T01:11:13.839Z,0
2017-10-24T01:11:54.376Z,0
2017-10-24T01:12:34.906Z,0
2017-10-24T01:13:15.457Z,0
2017-10-24T01:13:55.986Z,0
2017-10-24T01:14:36.523Z,0
2017-10-24T01:15:17.060Z,0
2017-10-24T01:15:57.600Z,0
2017-10-24T01:16:38.129Z,0
2017-10-24T01:17:18.663Z,0
2017-10-24T01:17:59.213Z,0
2017-10-24T01:18:39.728Z,0
2017-10-24T01:19:20.266Z,0
2017-10-24T01:20:00.800Z,0
2017-10-24T01:20:41.334Z,0
2017-10-24T01:21:21.887Z,0
2017-10-24T01:22:02.428Z,0
2017-10-24T01:22:42.963Z,0
2017-10-24T01:23:23.509Z,0
2017-10-24T01:24:04.043Z,0
2017-10-24T01:24:44.572Z,0
2017-10-24T01:25:25.155Z,0
2017-10-24T01:26:05.687Z,0
2017-10-24T01:26:46.224Z,0
2017-10-24T01:27:26.758Z,0
2017-10-24T01:28:07.294Z,0
2017-10-24T01:28:47.840Z,0
2017-10-24T01:29:28.374Z,0
2017-10-24T01:30:08.911Z,0
2017-10-24T01:30:49.444Z,0
2017-10-24T01:31:29.970Z,0
2017-10-24T01:32:10.500Z,0
2017-10-24T01:32:51.050Z,0
2017-10-24T01:33:31.577Z,0
2017-10-24T01:34:12.108Z,0
2017-10-24T01:34:52.641Z,0
2017-10-24T01:35:33.180Z,0
2017-10-24T01:36:13.715Z,0
2017-10-24T01:36:54.247Z,0
2017-10-24T01:37:34.788Z,0
2017-10-24T01:38:15.329Z,0
2017-10-24T01:38:55.856Z,0
2017-10-24T01:39:36.394Z,0
2017-10-24T01:40:16.934Z,0
2017-10-24T01:40:57.472Z,0
2017-10-24T01:41:38.042Z,0
2017-10-24T01:42:18.580Z,0
2017-10-24T01:42:59.164Z,0
2017-10-24T01:43:39.674Z,0
2017-10-24T01:44:20.216Z,0
2017-10-24T01:45:00.750Z,0
2017-10-24T01:45:41.286Z,0
2017-10-24T01:46:21.818Z,0
2017-10-24T01:47:02.347Z,0
2017-10-24T01:47:42.891Z,0
2017-10-24T01:48:23.425Z,0
2017-10-24T01:49:03.960Z,0
2017-10-24T01:49:44.491Z,0
2017-10-24T01:50:25.021Z,0
2017-10-24T01:51:05.554Z,0
2017-10-24T01:51:46.095Z,0
2017-10-24T01:52:26.630Z,0
2017-10-24T01:53:07.165Z,0
2017-10-24T01:53:47.700Z,0
2017-10-24T01:54:28.235Z,0
2017-10-24T01:55:08.766Z,0
2017-10-24T01:55:49.299Z,0
2017-10-24T01:56:29.838Z,0
2017-10-24T01:57:10.380Z,0
2017-10-24T01:57:50.897Z,0
2017-10-24T01:58:31.434Z,0
2017-10-24T01:59:11.956Z,0
2017-10-24T01:59:52.493Z,0
2017-10-24T02:00:33.033Z,0
2017-10-24T02:01:13.555Z,0
2017-10-24T02:01:54.096Z,0
2017-10-24T02:02:34.636Z,0
2017-10-24T02:03:15.184Z,0
2017-10-24T02:03:55.719Z,0
2017-10-24T02:04:36.254Z,0
2017-10-24T02:05:16.784Z,0
2017-10-24T02:05:57.391Z,0
2017-10-24T02:06:37.930Z,0
2017-10-24T02:07:18.467Z,0
2017-10-24T02:07:59.011Z,0
2017-10-24T02:08:39.546Z,0
2017-10-24T02:09:20.076Z,0
2017-10-24T02:10:00.607Z,0
2017-10-24T02:10:41.142Z,0
2017-10-24T02:11:21.675Z,0
2017-10-24T02:12:02.212Z,0
2017-10-24T02:12:42.746Z,0
2017-10-24T02:13:23.279Z,0
2017-10-24T02:14:03.818Z,0
2017-10-24T02:14:44.352Z,0
2017-10-24T02:15:24.879Z,0
2017-10-24T02:16:05.506Z,0
2017-10-24T02:16:46.033Z,0
2017-10-24T02:17:26.564Z,0
2017-10-24T02:18:07.096Z,0
2017-10-24T02:18:47.633Z,0
2017-10-24T02:19:28.169Z,0
2017-10-24T02:20:08.703Z,0
2017-10-24T02:20:49.237Z,0
2017-10-24T02:21:29.764Z,0
2017-10-24T02:22:10.293Z,0
2017-10-24T02:22:50.830Z,0
2017-10-24T02:23:31.373Z,0
2017-10-24T02:24:11.908Z,0
2017-10-24T02:24:52.437Z,0
2017-10-24T02:25:32.988Z,0
2017-10-24T02:26:13.510Z,0
2017-10-24T02:26:54.048Z,0
2017-10-24T02:27:34.578Z,0
2017-10-24T02:28:15.113Z,0
2017-10-24T02:28:55.643Z,0
2017-10-24T02:29:36.179Z,0
2017-10-24T02:30:16.712Z,0
2017-10-24T02:30:57.231Z,0
2017-10-24T02:31:37.785Z,0
2017-10-24T02:32:18.313Z,0
2017-10-24T02:32:58.845Z,0
2017-10-24T02:33:39.385Z,0
2017-10-24T02:34:19.918Z,0
2017-10-24T02:35:00.448Z,0
2017-10-24T02:35:40.982Z,0
2017-10-24T02:36:21.527Z,0
2017-10-24T02:37:02.051Z,0
2017-10-24T02:37:42.587Z,0
2017-10-24T02:38:23.119Z,0
2017-10-24T02:39:03.652Z,0
2017-10-24T02:39:44.184Z,0
2017-10-24T02:40:24.719Z,0
2017-10-24T02:41:05.250Z,0
2017-10-24T02:41:45.789Z,0
2017-10-24T02:42:26.321Z,0
2017-10-24T02:43:06.859Z,0
2017-10-24T02:43:47.393Z,0
2017-10-24T02:44:27.932Z,0
2017-10-24T02:45:08.457Z,0
2017-10-24T02:45:49.004Z,0
2017-10-24T02:46:29.547Z,0
2017-10-24T02:47:10.066Z,0
2017-10-24T02:47:50.602Z,0
2017-10-24T02:48:31.141Z,0
2017-10-24T02:49:11.676Z,0
2017-10-24T02:49:52.207Z,0
2017-10-24T02:50:32.746Z,0
2017-10-24T02:51:13.287Z,0
2017-10-24T02:51:53.824Z,0
2017-10-24T02:52:34.357Z,0
2017-10-24T02:53:14.897Z,0
2017-10-24T02:53:55.429Z,0
2017-10-24T02:54:35.963Z,0
2017-10-24T02:55:16.500Z,0
2017-10-24T02:55:57.034Z,0
2017-10-24T02:56:37.570Z,0
2017-10-24T02:57:18.104Z,0
2017-10-24T02:57:58.650Z,0
2017-10-24T02:58:39.181Z,0
2017-10-24T02:59:19.714Z,0
2017-10-24T03:00:00.254Z,0
2017-10-24T03:00:40.778Z,0
2017-10-24T03:01:21.311Z,0
2017-10-24T03:02:01.850Z,0
2017-10-24T03:02:42.387Z,0
2017-10-24T03:03:22.939Z,0
2017-10-24T03:04:03.476Z,0
2017-10-24T03:04:44.019Z,0
2017-10-24T03:05:24.555Z,0
2017-10-24T03:06:05.089Z,0
2017-10-24T03:06:45.624Z,0
2017-10-24T03:07:26.156Z,0
2017-10-24T03:08:06.693Z,0
2017-10-24T03:08:47.235Z,0
2017-10-24T03:09:27.780Z,0
2017-10-24T03:10:08.309Z,0
2017-10-24T03:10:48.831Z,0
2017-10-24T03:11:29.369Z,0
2017-10-24T03:12:09.886Z,0
2017-10-24T03:12:50.432Z,0
2017-10-24T03:13:30.966Z,0
2017-10-24T03:14:11.505Z,0
2017-10-24T03:14:52.036Z,0
2017-10-24T03:15:32.580Z,0
2017-10-24T03:16:13.114Z,0
2017-10-24T03:16:53.657Z,0
2017-10-24T03:17:34.232Z,0
2017-10-24T03:18:14.772Z,0
2017-10-24T03:18:55.310Z,0
2017-10-24T03:19:35.846Z,0
2017-10-24T03:20:16.383Z,0
2017-10-24T03:20:56.933Z,0
2017-10-24T03:21:37.466Z,0
2017-10-24T03:22:18.007Z,0
2017-10-24T03:22:58.543Z,0
2017-10-24T03:23:39.073Z,0
2017-10-24T03:24:19.611Z,0
2017-10-24T03:25:00.147Z,0
2017-10-24T03:25:40.680Z,0
2017-10-24T03:26:21.221Z,0
2017-10-24T03:27:01.750Z,0
2017-10-24T03:27:42.280Z,0
2017-10-24T03:28:22.827Z,0
2017-10-24T03:29:03.355Z,0
2017-10-24T03:29:43.890Z,0
2017-10-24T03:30:24.425Z,0
2017-10-24T03:31:04.954Z,0
2017-10-24T03:31:45.483Z,0
2017-10-24T03:32:26.017Z,0
2017-10-24T03:33:06.548Z,0
2017-10-24T03:33:47.094Z,0
2017-10-24T03:34:27.630Z,0
2017-10-24T03:35:08.165Z,0
2017-10-24T03:35:48.702Z,0
2017-10-24T03:36:29.245Z,0
2017-10-24T03:37:09.783Z,0
2017-10-24T03:37:50.317Z,0
2017-10-24T03:38:30.849Z,0
2017-10-24T03:39:11.380Z,0
2017-10-24T03:39:51.939Z,0
2017-10-24T03:40:32.466Z,0
2017-10-24T03:41:12.995Z,0
2017-10-24T03:41:53.534Z,0
2017-10-24T03:42:34.058Z,0
2017-10-24T03:43:14.589Z,0
2017-10-24T03:43:55.123Z,0
2017-10-24T03:44:35.667Z,0
2017-10-24T03:45:16.206Z,0
2017-10-24T03:45:56.741Z,0
2017-10-24T03:46:37.270Z,0
2017-10-24T03:47:17.804Z,0
2017-10-24T03:47:58.342Z,0
2017-10-24T03:48:38.874Z,0
2017-10-24T03:49:19.413Z,0
2017-10-24T03:49:59.950Z,0
2017-10-24T03:50:40.492Z,0
2017-10-24T03:51:21.032Z,0
2017-10-24T03:52:01.572Z,0
2017-10-24T03:52:42.117Z,0
2017-10-24T03:53:22.642Z,0
2017-10-24T03:54:03.177Z,0
2017-10-24T03:54:43.709Z,0
2017-10-24T03:55:24.251Z,0
2017-10-24T03:56:04.789Z,0
2017-10-24T03:56:45.324Z,0
2017-10-24T03:57:25.863Z,0
2017-10-24T03:58:06.393Z,0
2017-10-24T03:58:46.925Z,0
2017-10-24T03:59:27.474Z,0
2017-10-24T04:00:08.013Z,0
2017-10-24T04:00:48.550Z,0
2017-10-24T04:01:29.096Z,0
2017-10-24T04:02:09.630Z,0
2017-10-24T04:02:50.168Z,0
2017-10-24T04:03:30.695Z,0
2017-10-24T04:04:11.232Z,0
2017-10-24T04:04:51.764Z,0
2017-10-24T04:05:32.305Z,0
2017-10-24T04:06:12.840Z,0
2017-10-24T04:06:53.372Z,0
2017-10-24T04:07:33.905Z,0
2017-10-24T04:08:14.451Z,0
2017-10-24T04:08:54.981Z,0
2017-10-24T04:09:35.515Z,0
2017-10-24T04:10:16.063Z,0
2017-10-24T04:10:56.599Z,0
2017-10-24T04:11:37.136Z,0
2017-10-24T04:12:17.676Z,0
2017-10-24T04:12:58.205Z,0
2017-10-24T04:13:38.744Z,0
2017-10-24T04:14:19.277Z,0
2017-10-24T04:14:59.815Z,0
2017-10-24T04:15:40.351Z,0
2017-10-24T04:16:20.892Z,0
2017-10-24T04:17:01.426Z,0
2017-10-24T04:17:41.961Z,0
2017-10-24T04:18:22.493Z,0
2017-10-24T04:19:03.027Z,0
2017-10-24T04:19:43.576Z,0
2017-10-24T04:20:24.117Z,0
2017-10-24T04:21:04.651Z,0
2017-10-24T04:21:45.183Z,0
2017-10-24T04:22:25.715Z,0
2017-10-24T04:23:06.243Z,0
2017-10-24T04:23:46.778Z,0
2017-10-24T04:24:27.320Z,0
2017-10-24T04:25:07.857Z,0
2017-10-24T04:25:48.387Z,0
2017-10-24T04:26:28.921Z,0
2017-10-24T04:27:09.454Z,0
2017-10-24T04:27:49.986Z,0
2017-10-24T04:28:30.524Z,0
2017-10-24T04:29:11.062Z,0
2017-10-24T04:29:51.595Z,0
2017-10-24T04:30:32.132Z,0
2017-10-24T04:31:12.665Z,0
2017-10-24T04:31:53.191Z,0
2017-10-24T04:32:33.727Z,0
2017-10-24T04:33:14.252Z,0
2017-10-24T04:33:54.793Z,0
2017-10-24T04:34:35.324Z,0
2017-10-24T04:35:15.858Z,0
2017-10-24T04:35:56.408Z,0
2017-10-24T04:36:36.943Z,0
2017-10-24T04:37:17.485Z,0
2017-10-24T04:37:58.017Z,0
2017-10-24T04:38:38.558Z,0
2017-10-24T04:39:19.093Z,0
2017-10-24T04:39:59.636Z,0
2017-10-24T04:40:40.159Z,0
2017-10-24T04:41:20.691Z,0
2017-10-24T04:42:01.229Z,0
2017-10-24T04:42:41.772Z,0
2017-10-24T04:43:22.310Z,0
2017-10-24T04:44:02.824Z,0
2017-10-24T04:44:43.357Z,0
2017-10-24T04:45:23.893Z,0
2017-10-24T04:46:04.439Z,0
2017-10-24T04:46:44.977Z,0
2017-10-24T04:47:25.515Z,0
2017-10-24T04:48:06.048Z,0
2017-10-24T04:48:46.588Z,0
2017-10-24T04:49:27.120Z,0
2017-10-24T04:50:07.654Z,0
2017-10-24T04:50:48.201Z,0
2017-10-24T04:51:28.839Z,0
2017-10-24T04:52:09.383Z,0
2017-10-24T04:52:49.921Z,0
2017-10-24T04:53:30.459Z,0
2017-10-24T04:54:10.990Z,0
2017-10-24T04:54:51.525Z,0
2017-10-24T04:55:32.057Z,0
2017-10-24T04:56:12.599Z,0
2017-10-24T04:56:53.136Z,0
2017-10-24T04:57:33.664Z,0
2017-10-24T04:58:14.195Z,0
2017-10-24T04:58:54.722Z,0
2017-10-24T04:59:35.258Z,0
2017-10-24T05:00:15.801Z,0
2017-10-24T05:00:56.327Z,0
2017-10-24T05:01:36.868Z,0
2017-10-24T05:02:17.398Z,0
2017-10-24T05:02:57.931Z,0
2017-10-24T05:03:38.465Z,0
2017-10-24T05:04:19.004Z,0
2017-10-24T05:04:59.540Z,0
2017-10-24T05:05:40.071Z,0
2017-10-24T05:06:20.609Z,0
2017-10-24T05:07:01.142Z,0
2017-10-24T05:07:41.678Z,0
2017-10-24T05:08:22.213Z,0
2017-10-24T05:09:02.747Z,0
2017-10-24T05:09:43.279Z,0
2017-10-24T05:10:23.821Z,0
2017-10-24T05:11:04.353Z,0
2017-10-24T05:11:44.884Z,0
2017-10-24T05:12:25.419Z,0
2017-10-24T05:13:05.966Z,0
2017-10-24T05:13:46.477Z,0
2017-10-24T05:14:27.012Z,0
2017-10-24T05:15:07.544Z,0
2017-10-24T05:15:48.077Z,0
2017-10-24T05:16:28.613Z,0
2017-10-24T05:17:09.141Z,0
2017-10-24T05:17:49.679Z,0
2017-10-24T05:18:30.213Z,0
2017-10-24T05:19:10.750Z,0
2017-10-24T05:19:51.278Z,0
2017-10-24T05:20:31.816Z,0
2017-10-24T05:21:12.353Z,0
2017-10-24T05:21:52.887Z,0
2017-10-24T05:22:33.432Z,0
2017-10-24T05:23:13.966Z,0
2017-10-24T05:23:54.491Z,0
2017-10-24T05:24:35.026Z,0
2017-10-24T05:25:15.571Z,0
2017-10-24T05:25:56.102Z,0
2017-10-24T05:26:36.705Z,0
2017-10-24T05:27:17.253Z,0
2017-10-24T05:27:57.774Z,0
2017-10-24T05:28:38.308Z,0
2017-10-24T05:29:18.842Z,0
2017-10-24T05:29:59.374Z,0
2017-10-24T05:30:39.910Z,0
2017-10-24T05:31:20.440Z,0
2017-10-24T05:32:00.977Z,0
2017-10-24T05:32:41.503Z,0
2017-10-24T05:33:22.044Z,0
2017-10-24T05:34:02.581Z,0
2017-10-24T05:34:43.101Z,0
2017-10-24T05:35:23.639Z,0
2017-10-24T05:36:04.180Z,0
2017-10-24T05:36:44.713Z,0
2017-10-24T05:37:25.293Z,0
2017-10-24T05:38:05.832Z,0
2017-10-24T05:38:46.405Z,0
2017-10-24T05:39:26.952Z,0
2017-10-24T05:40:07.489Z,0
2017-10-24T05:40:48.028Z,0
2017-10-24T05:41:28.554Z,0
2017-10-24T05:42:09.090Z,0
2017-10-24T05:42:49.623Z,0
2017-10-24T05:43:30.156Z,4
2017-10-24T05:44:10.687Z,4
2017-10-24T05:44:51.215Z,4
2017-10-24T05:45:31.807Z,4
2017-10-24T05:46:12.341Z,0
2017-10-24T05:46:52.894Z,4
2017-10-24T05:47:33.464Z,4
2017-10-24T05:48:13.996Z,4
2017-10-24T05:48:54.535Z,4
2017-10-24T05:49:35.085Z,4
2017-10-24T05:50:15.605Z,4
2017-10-24T05:50:56.140Z,4
2017-10-24T05:51:36.661Z,8
2017-10-24T05:52:17.201Z,8
2017-10-24T05:52:57.731Z,12
2017-10-24T05:53:38.263Z,12
2017-10-24T05:54:18.800Z,12
2017-10-24T05:54:59.335Z,12
2017-10-24T05:55:39.871Z,12
2017-10-24T05:56:20.409Z,16
2017-10-24T05:57:00.951Z,16
2017-10-24T05:57:41.476Z,16
2017-10-24T05:58:22.017Z,20
2017-10-24T05:59:02.552Z,24
2017-10-24T05:59:43.085Z,28
2017-10-24T06:00:23.617Z,28
2017-10-24T06:01:04.155Z,32
2017-10-24T06:01:44.688Z,36
2017-10-24T06:02:25.230Z,36
2017-10-24T06:03:05.767Z,36
2017-10-24T06:03:46.289Z,40
2017-10-24T06:04:26.821Z,44
2017-10-24T06:05:07.360Z,48
2017-10-24T06:05:47.922Z,52
2017-10-24T06:06:28.460Z,56
2017-10-24T06:07:09.000Z,60
2017-10-24T06:07:49.535Z,68
2017-10-24T06:08:30.073Z,72
2017-10-24T06:09:10.617Z,76
2017-10-24T06:09:51.138Z,80
2017-10-24T06:10:31.673Z,80
2017-10-24T06:11:12.214Z,84
2017-10-24T06:11:52.747Z,88
2017-10-24T06:12:33.288Z,96
2017-10-24T06:13:13.827Z,100
2017-10-24T06:13:54.361Z,112
2017-10-24T06:14:34.900Z,124
2017-10-24T06:15:15.431Z,136
2017-10-24T06:15:55.968Z,144
2017-10-24T06:16:36.506Z,156
2017-10-24T06:17:17.038Z,168
2017-10-24T06:17:57.585Z,180
2017-10-24T06:18:38.117Z,196
2017-10-24T06:19:18.649Z,220
2017-10-24T06:19:59.188Z,240
2017-10-24T06:20:39.722Z,264
2017-10-24T06:21:20.254Z,288
2017-10-24T06:22:00.799Z,308
2017-10-24T06:22:41.319Z,324
2017-10-24T06:23:21.855Z,344
2017-10-24T06:24:02.386Z,356
2017-10-24T06:24:42.915Z,372
2017-10-24T06:25:23.456Z,392
2017-10-24T06:26:03.989Z,416
2017-10-24T06:26:44.556Z,432
2017-10-24T06:27:25.090Z,448
2017-10-24T06:28:05.623Z,464
2017-10-24T06:28:46.161Z,476
2017-10-24T06:29:26.695Z,480
2017-10-24T06:30:07.229Z,480
2017-10-24T06:30:47.763Z,476
2017-10-24T06:31:28.294Z,488
2017-10-24T06:32:08.830Z,516
2017-10-24T06:32:49.353Z,560
2017-10-24T06:33:29.918Z,608
2017-10-24T06:34:10.453Z,628
2017-10-24T06:34:50.987Z,624
2017-10-24T06:35:31.524Z,608
2017-10-24T06:36:12.060Z,580
2017-10-24T06:36:52.598Z,564
2017-10-24T06:37:33.131Z,556
2017-10-24T06:38:13.673Z,552
2017-10-24T06:38:54.205Z,524
2017-10-24T06:39:34.741Z,488
2017-10-24T06:40:15.286Z,452
2017-10-24T06:40:55.822Z,428
2017-10-24T06:41:36.359Z,424
2017-10-24T06:42:16.891Z,420
2017-10-24T06:42:57.437Z,412
2017-10-24T06:43:37.962Z,420
2017-10-24T06:44:18.495Z,428
2017-10-24T06:44:59.032Z,428
2017-10-24T06:45:39.561Z,416
2017-10-24T06:46:20.103Z,416
2017-10-24T06:47:00.636Z,424
2017-10-24T06:47:41.186Z,424
2017-10-24T06:48:21.819Z,420
2017-10-24T06:49:02.347Z,424
2017-10-24T06:49:42.886Z,440
2017-10-24T06:50:23.423Z,456
2017-10-24T06:51:03.960Z,476
2017-10-24T06:51:44.495Z,480
2017-10-24T06:52:25.031Z,472
2017-10-24T06:53:05.563Z,464
2017-10-24T06:53:46.099Z,448
2017-10-24T06:54:26.634Z,428
2017-10-24T06:55:07.164Z,412
2017-10-24T06:55:47.702Z,396
2017-10-24T06:56:28.237Z,380
2017-10-24T06:57:08.774Z,380
2017-10-24T06:57:49.311Z,384
2017-10-24T06:58:29.854Z,388
2017-10-24T06:59:10.382Z,384
2017-10-24T06:59:50.919Z,392
2017-10-24T07:00:31.452Z,408
2017-10-24T07:01:11.990Z,428
2017-10-24T07:01:52.527Z,448
2017-10-24T07:02:33.059Z,468
2017-10-24T07:03:13.593Z,484
2017-10-24T07:03:54.139Z,484
2017-10-24T07:04:34.672Z,484
2017-10-24T07:05:15.202Z,476
2017-10-24T07:05:55.743Z,488
2017-10-24T07:06:36.273Z,500
2017-10-24T07:07:16.809Z,504
2017-10-24T07:07:57.342Z,500
2017-10-24T07:08:37.876Z,492
2017-10-24T07:09:18.462Z,508
2017-10-24T07:09:58.993Z,528
2017-10-24T07:10:39.528Z,556
2017-10-24T07:11:20.064Z,572
2017-10-24T07:12:00.600Z,588
2017-10-24T07:12:41.129Z,604
2017-10-24T07:13:21.663Z,616
2017-10-24T07:14:02.193Z,636
2017-10-24T07:14:42.733Z,664
2017-10-24T07:15:23.367Z,688
2017-10-24T07:16:03.893Z,704
2017-10-24T07:16:44.425Z,712
2017-10-24T07:17:24.961Z,716
2017-10-24T07:18:05.498Z,720
2017-10-24T07:18:46.036Z,720
2017-10-24T07:19:26.566Z,708
2017-10-24T07:20:07.101Z,692
2017-10-24T07:20:47.630Z,684
2017-10-24T07:21:28.173Z,668
2017-10-24T07:22:08.709Z,660
2017-10-24T07:22:49.240Z,656
2017-10-24T07:23:29.772Z,652
2017-10-24T07:24:10.310Z,668
2017-10-24T07:24:50.850Z,688
2017-10-24T07:25:31.378Z,708
2017-10-24T07:26:11.911Z,752
2017-10-24T07:26:52.445Z,784
2017-10-24T07:27:32.994Z,808
2017-10-24T07:28:13.526Z,828
2017-10-24T07:28:54.059Z,832
2017-10-24T07:29:34.595Z,860
2017-10-24T07:30:15.133Z,888
2017-10-24T07:30:55.652Z,896
2017-10-24T07:31:36.191Z,908
2017-10-24T07:32:16.731Z,924
2017-10-24T07:32:57.262Z,964
2017-10-24T07:33:37.797Z,1008
2017-10-24T07:34:18.331Z,1072
2017-10-24T07:34:58.868Z,1140
2017-10-24T07:35:39.400Z,1172
2017-10-24T07:36:19.933Z,1160
2017-10-24T07:37:00.471Z,1096
2017-10-24T07:37:41.003Z,1024
2017-10-24T07:38:21.541Z,988
2017-10-24T07:39:02.074Z,988
2017-10-24T07:39:42.613Z,1028
2017-10-24T07:40:23.153Z,1100
2017-10-24T07:41:03.686Z,1132
2017-10-24T07:41:44.224Z,1180
2017-10-24T07:42:24.843Z,1304
2017-10-24T07:43:05.379Z,1348
2017-10-24T07:43:45.910Z,1328
2017-10-24T07:44:26.451Z,1332
2017-10-24T07:45:06.998Z,1312
2017-10-24T07:45:47.516Z,1296
2017-10-24T07:46:28.048Z,1288
2017-10-24T07:47:08.587Z,1340
2017-10-24T07:47:49.124Z,1448
2017-10-24T07:48:29.663Z,1552
2017-10-24T07:49:10.203Z,1620
2017-10-24T07:49:50.741Z,1640
2017-10-24T07:50:31.278Z,1708
2017-10-24T07:51:11.810Z,1788
2017-10-24T07:51:52.349Z,1920
2017-10-24T07:52:32.890Z,1980
2017-10-24T07:53:13.430Z,1924
2017-10-24T07:53:53.967Z,1956
2017-10-24T07:54:34.501Z,2140
2017-10-24T07:55:15.024Z,2280
2017-10-24T07:55:55.558Z,2400
2017-10-24T07:56:36.093Z,2476
2017-10-24T07:57:16.639Z,2456
2017-10-24T07:57:57.179Z,2244
2017-10-24T07:58:37.714Z,2028
2017-10-24T07:59:18.243Z,2076
2017-10-24T07:59:58.778Z,2452
2017-10-24T08:00:39.334Z,2684
2017-10-24T08:01:19.868Z,3048
2017-10-24T08:02:00.409Z,3420
2017-10-24T08:02:40.976Z,3608
2017-10-24T08:03:21.511Z,3604
2017-10-24T08:04:02.056Z,3220
2017-10-24T08:04:42.708Z,2844
2017-10-24T08:05:23.231Z,2948
2017-10-24T08:06:03.765Z,3276
2017-10-24T08:06:44.297Z,3480
2017-10-24T08:07:24.840Z,3548
2017-10-24T08:08:05.376Z,3600
2017-10-24T08:08:45.934Z,3728
2017-10-24T08:09:26.482Z,3876
2017-10-24T08:10:07.031Z,3988
2017-10-24T08:10:47.570Z,4116
2017-10-24T08:11:28.108Z,4320
2017-10-24T08:12:08.648Z,4332
2017-10-24T08:12:49.186Z,4236
2017-10-24T08:13:29.722Z,4016
2017-10-24T08:14:10.260Z,3416
2017-10-24T08:14:50.794Z,2832
2017-10-24T08:15:31.334Z,2376
2017-10-24T08:16:11.876Z,2160
2017-10-24T08:16:52.400Z,2120
2017-10-24T08:17:32.946Z,2172
2017-10-24T08:18:13.490Z,2248
2017-10-24T08:18:54.021Z,2312
2017-10-24T08:19:34.551Z,2404
2017-10-24T08:20:15.089Z,2504
2017-10-24T08:20:55.627Z,2588
2017-10-24T08:21:36.164Z,2656
2017-10-24T08:22:16.701Z,2780
2017-10-24T08:22:57.243Z,3016
2017-10-24T08:23:37.786Z,3452
2017-10-24T08:24:18.318Z,3912
2017-10-24T08:24:58.855Z,4236
2017-10-24T08:25:39.396Z,4576
2017-10-24T08:26:19.926Z,4864
2017-10-24T08:27:00.473Z,5144
2017-10-24T08:27:41.015Z,5708
2017-10-24T08:28:21.551Z,6200
2017-10-24T08:29:02.085Z,6436
2017-10-24T08:29:42.628Z,6528
2017-10-24T08:30:23.159Z,6876
2017-10-24T08:31:03.697Z,7436
2017-10-24T08:31:44.240Z,7584
2017-10-24T08:32:24.780Z,7296
2017-10-24T08:33:05.311Z,7148
2017-10-24T08:33:45.844Z,9620
2017-10-24T08:34:26.389Z,10792
2017-10-24T08:35:06.925Z,11772
2017-10-24T08:35:47.466Z,8288
2017-10-24T08:36:28.005Z,8016
2017-10-24T08:37:08.546Z,7592
2017-10-24T08:37:49.085Z,7124
2017-10-24T08:38:29.618Z,6540
2017-10-24T08:39:10.160Z,6132
2017-10-24T08:39:50.695Z,6108
2017-10-24T08:40:31.228Z,6080
2017-10-24T08:41:11.768Z,5936
2017-10-24T08:41:52.305Z,5848
2017-10-24T08:42:32.849Z,5912
2017-10-24T08:43:13.387Z,6248
2017-10-24T08:43:53.926Z,6504
2017-10-24T08:44:34.487Z,6800
2017-10-24T08:45:15.042Z,7240
2017-10-24T08:45:55.580Z,7440
2017-10-24T08:46:36.117Z,7456
2017-10-24T08:47:16.656Z,7564
2017-10-24T08:47:57.190Z,7572
2017-10-24T08:48:37.725Z,7488
2017-10-24T08:49:18.263Z,7468
2017-10-24T08:49:58.805Z,7608
2017-10-24T08:50:39.346Z,8008
2017-10-24T08:51:19.882Z,8468
2017-10-24T08:52:00.422Z,8568
2017-10-24T08:52:40.975Z,8968
2017-10-24T08:53:21.504Z,9456
2017-10-24T08:54:02.056Z,9692
2017-10-24T08:54:42.599Z,10136
2017-10-24T08:55:23.123Z,10000
2017-10-24T08:56:03.660Z,9188
2017-10-24T08:56:44.202Z,8968
2017-10-24T08:57:24.746Z,9036
2017-10-24T08:58:05.296Z,8700
2017-10-24T08:58:45.829Z,8952
2017-10-24T08:59:26.370Z,9348
2017-10-24T09:00:06.901Z,9580
2017-10-24T09:00:47.436Z,10016
2017-10-24T09:01:27.977Z,9940
2017-10-24T09:02:08.517Z,10600
2017-10-24T09:02:49.095Z,11000
2017-10-24T09:03:29.632Z,11212
2017-10-24T09:04:10.171Z,12192
2017-10-24T09:04:50.709Z,13104
2017-10-24T09:05:31.247Z,13500
2017-10-24T09:06:11.788Z,13884
2017-10-24T09:06:52.328Z,16736
2017-10-24T09:07:32.868Z,16992
2017-10-24T09:08:13.407Z,14848
2017-10-24T09:08:53.942Z,14484
2017-10-24T09:09:34.481Z,13492
2017-10-24T09:10:15.030Z,18528
2017-10-24T09:10:55.576Z,17472
2017-10-24T09:11:36.111Z,17856
2017-10-24T09:12:16.645Z,18176
2017-10-24T09:12:57.176Z,24128
2017-10-24T09:13:37.723Z,21792
2017-10-24T09:14:18.264Z,24608
2017-10-24T09:14:58.800Z,23616
2017-10-24T09:15:39.341Z,20832
2017-10-24T09:16:19.884Z,16928
2017-10-24T09:17:00.425Z,22592
2017-10-24T09:17:40.967Z,18080
2017-10-24T09:18:21.508Z,25536
2017-10-24T09:19:02.051Z,22336
2017-10-24T09:19:42.586Z,22976
2017-10-24T09:20:23.131Z,19584
2017-10-24T09:21:03.657Z,14856
2017-10-24T09:21:44.197Z,9704
2017-10-24T09:22:24.737Z,9984
2017-10-24T09:23:05.326Z,9840
2017-10-24T09:23:45.861Z,9396
2017-10-24T09:24:26.399Z,12872
2017-10-24T09:25:06.950Z,14716
2017-10-24T09:25:47.492Z,19456
2017-10-24T09:26:28.034Z,23360
2017-10-24T09:27:08.576Z,21760
2017-10-24T09:27:49.117Z,20512
2017-10-24T09:28:29.645Z,18304
2017-10-24T09:29:10.181Z,17440
2017-10-24T09:29:50.775Z,19840
2017-10-24T09:30:31.312Z,21568
2017-10-24T09:31:11.844Z,20992
2017-10-24T09:31:52.384Z,16704
2017-10-24T09:32:32.919Z,10620
2017-10-24T09:33:13.459Z,8640
2017-10-24T09:33:54.000Z,8528
2017-10-24T09:34:34.542Z,7932
2017-10-24T09:35:15.081Z,8044
2017-10-24T09:35:55.617Z,8184
2017-10-24T09:36:36.161Z,8160
2017-10-24T09:37:16.690Z,8648
2017-10-24T09:37:57.230Z,9156